createdAt,value
2022-09-10T12:05:34.016Z,98613.06
2022-09-10T12:08:15.214Z,98616.19
2022-09-10T12:10:49.844Z,98606.59
2022-09-10T12:13:17.833Z,98620.97
2022-09-10T12:15:52.736Z,98632.31
2022-09-10T12:18:25.584Z,98636.34
2022-09-10T12:20:59.348Z,98636.19
2022-09-10T12:23:31.297Z,98628.78
2022-09-10T12:26:00.796Z,98633.34
2022-09-10T12:29:04.094Z,98628.75
2022-09-10T12:32:05.884Z,98618.09
2022-09-10T12:34:33.574Z,98622.56
2022-09-10T12:37:21.683Z,98606.03
2022-09-10T12:39:50.376Z,98611.03
2022-09-10T12:42:33.017Z,98609.16
2022-09-10T12:45:01.246Z,98617.72
2022-09-10T12:47:50.365Z,98612.16
2022-09-10T12:50:29.271Z,98606.31
2022-09-10T12:53:34.328Z,98601.59
2022-09-10T12:56:15.639Z,98606.09
2022-09-10T12:58:59.361Z,98608.94
2022-09-10T13:01:41.261Z,98596.41
2022-09-10T13:04:24.459Z,98598.00
2022-09-10T13:06:55.321Z,98594.34
2022-09-10T13:09:29.080Z,98604.59
2022-09-10T13:12:03.466Z,98598.22
2022-09-10T13:14:36.756Z,98617.47
2022-09-10T13:17:05.434Z,98581.50
2022-09-10T13:19:51.932Z,98586.00
2022-09-10T13:22:58.278Z,98597.59
2022-09-10T13:25:36.941Z,98586.72
2022-09-10T13:28:43.592Z,98594.53
2022-09-10T13:31:19.227Z,98588.28
2022-09-10T13:34:09.918Z,98587.00
2022-09-10T13:36:48.040Z,98604.19
2022-09-10T13:39:46.842Z,98592.88
2022-09-10T13:42:35.603Z,98612.34
2022-09-10T13:45:31.886Z,98631.47
2022-09-10T13:48:02.297Z,98621.06
2022-09-10T13:50:37.998Z,98618.56
2022-09-10T13:53:10.638Z,98619.25
2022-09-10T13:55:39.401Z,98604.00
2022-09-10T13:58:16.448Z,98604.72
2022-09-10T14:00:53.169Z,98598.53
2022-09-10T14:03:23.990Z,98602.25
2022-09-10T14:05:54.289Z,98602.22
2022-09-10T14:08:26.625Z,98599.69
2022-09-10T14:11:00.728Z,98609.34
2022-09-10T14:13:36.864Z,98614.88
2022-09-10T14:16:08.540Z,98609.09
2022-09-10T14:18:43.332Z,98611.34
2022-09-10T14:21:14.178Z,98602.88
2022-09-10T14:23:45.823Z,98601.31
2022-09-10T14:26:23.156Z,98599.53
2022-09-10T14:28:55.175Z,98599.91
2022-09-10T14:31:35.743Z,98602.84
2022-09-10T14:34:26.999Z,98594.44
2022-09-10T14:36:54.652Z,98596.13
2022-09-10T14:39:23.650Z,98584.22
2022-09-10T14:42:10.159Z,98589.63
2022-09-10T14:44:43.508Z,98589.75
2022-09-10T14:47:16.149Z,98581.47
2022-09-10T14:49:47.155Z,98582.69
2022-09-10T14:52:15.590Z,98590.22
2022-09-10T14:54:43.557Z,98583.97
2022-09-10T14:57:15.132Z,98593.66
2022-09-10T14:59:46.199Z,98581.56
2022-09-10T15:02:17.854Z,98585.72
2022-09-10T15:04:45.962Z,98589.56
2022-09-10T15:07:13.827Z,98600.94
2022-09-10T15:09:41.833Z,98610.50
2022-09-10T15:12:14.904Z,98659.31
2022-09-10T15:14:44.004Z,98641.66
2022-09-10T15:17:15.078Z,98639.63
2022-09-10T15:19:42.929Z,98659.59
2022-09-10T15:22:20.705Z,98654.44
2022-09-10T15:25:08.650Z,98658.34
2022-09-10T15:27:37.191Z,98648.72
2022-09-10T15:30:07.934Z,98647.00
2022-09-10T15:32:35.715Z,98647.00
2022-09-10T15:35:04.253Z,98649.19
2022-09-10T15:37:31.921Z,98660.34
2022-09-10T15:39:59.810Z,98645.19
2022-09-10T15:42:27.548Z,98646.91
2022-09-10T15:44:55.269Z,98647.78
2022-09-10T15:47:24.518Z,98649.72
2022-09-10T15:49:53.614Z,98643.22
2022-09-10T15:52:23.858Z,98644.47
2022-09-10T15:54:51.579Z,98639.38
2022-09-10T15:57:19.370Z,98652.38
2022-09-10T15:59:47.264Z,98650.09
2022-09-10T16:02:15.019Z,98626.69
2022-09-10T16:04:44.099Z,98639.50
2022-09-10T16:07:11.880Z,98649.41
2022-09-10T16:09:40.009Z,98639.47
2022-09-10T16:12:07.983Z,98639.00
2022-09-10T16:14:35.914Z,98641.13
2022-09-10T16:17:10.240Z,98639.84
2022-09-10T16:19:38.082Z,98645.97
2022-09-10T16:22:08.062Z,98636.88
2022-09-10T16:24:35.758Z,98651.59
2022-09-10T16:27:03.819Z,98649.06
2022-09-10T16:29:32.553Z,98641.56
2022-09-10T16:32:00.243Z,98655.56
2022-09-10T16:34:27.977Z,98648.97
2022-09-10T16:36:57.238Z,98647.88
2022-09-10T16:39:26.487Z,98653.47
2022-09-10T16:41:55.854Z,98650.41
2022-09-10T16:44:24.140Z,98652.03
2022-09-10T16:46:52.457Z,98651.78
2022-09-10T16:49:20.354Z,98651.97
2022-09-10T16:51:49.291Z,98644.00
2022-09-10T16:54:19.429Z,98639.19
2022-09-10T16:56:50.168Z,98642.06
2022-09-10T16:59:20.287Z,98659.66
2022-09-10T17:01:49.469Z,98664.59
2022-09-10T17:04:21.346Z,98662.97
2022-09-10T17:06:51.806Z,98670.00
2022-09-10T17:09:19.793Z,98657.09
2022-09-10T17:11:49.151Z,98669.66
2022-09-10T17:14:16.918Z,98667.72
2022-09-10T17:16:44.816Z,98672.41
2022-09-10T17:19:15.139Z,98674.50
2022-09-10T17:21:44.799Z,98667.75
2022-09-10T17:24:14.453Z,98679.59
2022-09-10T17:26:42.965Z,98674.72
2022-09-10T17:29:14.600Z,98683.91
2022-09-10T17:31:43.127Z,98682.91
2022-09-10T17:34:12.733Z,98678.91
2022-09-10T17:36:41.564Z,98675.66
2022-09-10T17:39:09.339Z,98680.09
2022-09-10T17:41:38.088Z,98675.81
2022-09-10T17:44:06.715Z,98675.03
2022-09-10T17:46:36.162Z,98674.50
2022-09-10T17:49:04.781Z,98680.59
2022-09-10T17:51:37.576Z,98677.47
2022-09-10T17:54:05.438Z,98686.72
2022-09-10T17:56:33.328Z,98692.13
2022-09-10T17:59:03.009Z,98696.50
2022-09-10T18:01:32.830Z,98699.84
2022-09-10T18:04:02.901Z,98691.06
2022-09-10T18:06:32.309Z,98701.44
2022-09-10T18:09:01.804Z,98700.59
2022-09-10T18:11:31.571Z,98706.75
2022-09-10T18:14:00.579Z,98694.53
2022-09-10T18:16:31.103Z,98702.19
2022-09-10T18:19:00.584Z,98707.66
2022-09-10T18:21:33.879Z,98707.59
2022-09-10T18:24:03.270Z,98709.97
2022-09-10T18:26:33.481Z,98701.13
2022-09-10T18:29:03.923Z,98716.13
2022-09-10T18:31:34.002Z,98708.06
2022-09-10T18:34:05.378Z,98711.31
2022-09-10T18:36:35.003Z,98705.53
2022-09-10T18:39:04.033Z,98712.09
2022-09-10T18:41:33.876Z,98702.16
2022-09-10T18:44:04.029Z,98712.75
2022-09-10T18:46:33.291Z,98702.97
2022-09-10T18:49:02.297Z,98705.31
2022-09-10T18:51:31.360Z,98712.97
2022-09-10T18:54:02.509Z,98713.97
2022-09-10T18:56:32.339Z,98716.09
2022-09-10T18:59:04.564Z,98715.75
2022-09-10T19:01:33.005Z,98721.09
2022-09-10T19:04:03.083Z,98712.16
2022-09-10T19:06:33.102Z,98717.97
2022-09-10T19:09:05.061Z,98715.88
2022-09-10T19:11:34.639Z,98713.22
2022-09-10T19:14:04.703Z,98723.72
2022-09-10T19:16:34.949Z,98715.75
2022-09-10T19:19:05.286Z,98716.50
2022-09-10T19:21:35.267Z,98721.28
2022-09-10T19:24:04.901Z,98716.03
2022-09-10T19:26:34.427Z,98732.78
2022-09-10T19:29:03.474Z,98718.91
2022-09-10T19:31:33.518Z,98737.09
2022-09-10T19:34:03.230Z,98736.84
2022-09-10T19:36:33.984Z,98726.69
2022-09-10T19:39:02.162Z,98722.34
2022-09-10T19:41:31.987Z,98722.41
2022-09-10T19:44:00.996Z,98731.44
2022-09-10T19:46:29.210Z,98722.22
2022-09-10T19:48:59.335Z,98726.81
2022-09-10T19:51:28.447Z,98728.47
2022-09-10T19:53:56.664Z,98731.69
2022-09-10T19:56:27.199Z,98732.47
2022-09-10T19:58:56.811Z,98739.53
2022-09-10T20:01:26.939Z,98737.25
2022-09-10T20:03:56.172Z,98739.97
2022-09-10T20:06:25.433Z,98737.69
2022-09-10T20:08:53.816Z,98740.81
2022-09-10T20:11:23.069Z,98738.75
2022-09-10T20:13:56.222Z,98731.97
2022-09-10T20:16:26.157Z,98735.19
2022-09-10T20:18:54.365Z,98728.31
2022-09-10T20:21:24.561Z,98733.91
2022-09-10T20:23:55.552Z,98727.53
2022-09-10T20:26:25.306Z,98730.75
2022-09-10T20:28:56.815Z,98725.94
2022-09-10T20:31:26.154Z,98721.97
2022-09-10T20:33:56.256Z,98726.03
2022-09-10T20:36:25.164Z,98732.34
2022-09-10T20:38:53.362Z,98733.03
2022-09-10T20:41:21.278Z,98732.81
2022-09-10T20:43:51.675Z,98734.69
2022-09-10T20:46:23.107Z,98739.47
2022-09-10T20:48:51.949Z,98741.03
2022-09-10T20:51:20.666Z,98738.72
2022-09-10T20:53:49.165Z,98736.16
2022-09-10T20:56:18.762Z,98743.38
2022-09-10T20:58:47.773Z,98729.63
2022-09-10T21:01:18.832Z,98736.69
2022-09-10T21:03:49.969Z,98737.53
2022-09-10T21:06:19.554Z,98741.03
2022-09-10T21:08:48.981Z,98740.47
2022-09-10T21:11:18.674Z,98744.09
2022-09-10T21:13:48.319Z,98738.81
2022-09-10T21:16:17.895Z,98738.78
2022-09-10T21:18:54.375Z,98740.16
2022-09-10T21:21:25.655Z,98749.81
2022-09-10T21:23:55.168Z,98749.66
2022-09-10T21:26:25.034Z,98749.97
2022-09-10T21:28:53.713Z,98757.81
2022-09-10T21:31:21.405Z,98758.56
2022-09-10T21:33:50.956Z,98756.06
2022-09-10T21:36:20.919Z,98766.44
2022-09-10T21:38:49.300Z,98755.63
2022-09-10T21:41:19.321Z,98755.97
2022-09-10T21:43:48.334Z,98753.72
2022-09-10T21:46:16.112Z,98763.28
2022-09-10T21:48:44.027Z,98748.16
2022-09-10T21:51:14.973Z,98758.34
2022-09-10T21:53:43.825Z,98760.22
2022-09-10T21:56:13.619Z,98758.75
2022-09-10T21:58:42.097Z,98758.16
2022-09-10T22:01:11.726Z,98750.84
2022-09-10T22:03:40.104Z,98772.88
2022-09-10T22:06:09.181Z,98758.19
2022-09-10T22:08:40.036Z,98771.22
2022-09-10T22:11:09.774Z,98768.50
2022-09-10T22:13:38.958Z,98767.38
2022-09-10T22:16:07.343Z,98772.66
2022-09-10T22:18:37.529Z,98781.59
2022-09-10T22:21:06.669Z,98781.81
2022-09-10T22:23:36.199Z,98785.66
2022-09-10T22:26:06.835Z,98789.84
2022-09-10T22:28:35.653Z,98785.81
2022-09-10T22:31:08.493Z,98785.31
2022-09-10T22:33:36.844Z,98781.44
2022-09-10T22:36:12.841Z,98777.75
2022-09-10T22:38:40.837Z,98782.78
2022-09-10T22:41:10.745Z,98780.44
2022-09-10T22:43:39.014Z,98777.78
2022-09-10T22:46:07.930Z,98778.22
2022-09-10T22:48:37.581Z,98787.81
2022-09-10T22:51:08.167Z,98785.84
2022-09-10T22:53:36.225Z,98778.66
2022-09-10T22:56:04.288Z,98786.50
2022-09-10T22:58:34.021Z,98786.59
2022-09-10T23:01:04.881Z,98786.56
2022-09-10T23:03:35.596Z,98786.59
2022-09-10T23:06:06.087Z,98790.13
2022-09-10T23:08:34.808Z,98794.53
2022-09-10T23:11:11.191Z,98786.91
2022-09-10T23:13:40.349Z,98777.84
2022-09-10T23:16:15.979Z,98777.84
2022-09-10T23:18:47.427Z,98775.72
2022-09-10T23:21:15.302Z,98776.25
2022-09-10T23:23:46.077Z,98776.63
2022-09-10T23:26:16.381Z,98777.06
2022-09-10T23:28:45.892Z,98780.06
2022-09-10T23:31:16.392Z,98777.84
2022-09-10T23:33:46.219Z,98777.66
2022-09-10T23:36:14.742Z,98772.25
2022-09-10T23:38:43.758Z,98770.28
2022-09-10T23:41:12.821Z,98783.78
2022-09-10T23:43:41.330Z,98777.81
2022-09-10T23:46:11.304Z,98782.97
2022-09-10T23:48:41.304Z,98781.06
2022-09-10T23:51:10.984Z,98792.06
2022-09-10T23:53:39.775Z,98782.97
2022-09-10T23:56:08.542Z,98777.78
2022-09-10T23:58:36.232Z,98783.00
